createdAt,value
2023-01-29T01:07:12.716Z,364.00
2023-01-29T01:08:11.673Z,363.00
2023-01-29T01:28:11.385Z,368.00
2023-01-29T02:35:10.208Z,370.00
2023-01-29T02:36:10.186Z,371.00
2023-01-29T02:37:10.152Z,370.00
2023-01-29T02:38:10.128Z,371.00
2023-01-29T02:39:10.113Z,370.00
2023-01-29T02:40:10.098Z,371.00
2023-01-29T02:41:10.087Z,371.00
2023-01-29T02:42:10.063Z,368.00
2023-01-29T02:43:10.049Z,367.00
2023-01-29T02:44:10.038Z,366.00
2023-01-29T02:45:10.010Z,365.00
2023-01-29T02:46:10.118Z,363.00
2023-01-29T02:47:09.976Z,360.00
2023-01-29T02:48:09.975Z,360.00
2023-01-29T02:49:09.957Z,362.00
2023-01-29T02:50:09.934Z,362.00
2023-01-29T02:51:09.928Z,363.00
2023-01-29T02:52:09.913Z,363.00
2023-01-29T02:53:09.883Z,367.00
2023-01-29T02:54:09.876Z,367.00
2023-01-29T02:55:09.873Z,365.00
2023-01-29T02:56:09.837Z,364.00
2023-01-29T02:57:09.817Z,365.00
2023-01-29T02:58:09.819Z,364.00
2023-01-29T02:59:09.815Z,366.00
2023-01-29T03:00:09.775Z,366.00
2023-01-29T03:01:09.780Z,364.00
2023-01-29T03:02:09.764Z,369.00
2023-01-29T03:03:09.760Z,369.00
2023-01-29T03:04:09.725Z,367.00
2023-01-29T03:05:09.708Z,365.00
2023-01-29T03:06:09.690Z,363.00
2023-01-29T03:07:09.663Z,363.00
2023-01-29T03:08:09.651Z,363.00
2023-01-29T03:09:09.642Z,364.00
2023-01-29T03:10:09.631Z,361.00
2023-01-29T03:11:09.626Z,359.00
2023-01-29T03:12:09.598Z,363.00
2023-01-29T03:13:09.575Z,359.00
2023-01-29T03:14:09.564Z,357.00
2023-01-29T03:15:09.575Z,356.00
2023-01-29T03:16:09.592Z,355.00
2023-01-29T03:17:09.513Z,354.00
2023-01-29T03:18:09.497Z,357.00
2023-01-29T03:19:11.348Z,357.00
2023-01-29T03:20:09.465Z,360.00
2023-01-29T03:21:09.435Z,360.00
2023-01-29T03:22:09.413Z,361.00
2023-01-29T03:23:09.392Z,363.00
2023-01-29T03:24:09.437Z,363.00
2023-01-29T03:25:09.371Z,361.00
2023-01-29T03:26:09.372Z,361.00
2023-01-29T03:27:09.334Z,362.00
2023-01-29T03:28:09.326Z,363.00
2023-01-29T03:29:09.306Z,362.00
2023-01-29T03:30:09.285Z,364.00
2023-01-29T03:31:09.331Z,362.00
2023-01-29T03:32:09.302Z,362.00
2023-01-29T03:33:09.242Z,363.00
2023-01-29T03:34:09.227Z,364.00
2023-01-29T03:35:09.220Z,363.00
2023-01-29T03:36:09.195Z,363.00
2023-01-29T03:37:09.191Z,362.00
2023-01-29T03:38:09.153Z,360.00
2023-01-29T03:39:09.138Z,360.00
2023-01-29T03:40:09.119Z,360.00
2023-01-29T03:41:09.102Z,360.00
2023-01-29T03:42:09.082Z,360.00
2023-01-29T03:43:09.061Z,358.00
2023-01-29T03:44:09.053Z,359.00
2023-01-29T03:45:09.027Z,358.00
2023-01-29T03:46:09.066Z,358.00
2023-01-29T03:47:08.998Z,357.00
2023-01-29T03:48:08.998Z,358.00
2023-01-29T03:49:08.969Z,362.00
2023-01-29T03:50:08.968Z,363.00
2023-01-29T03:51:08.927Z,362.00
2023-01-29T03:52:08.911Z,361.00
2023-01-29T03:53:08.899Z,358.00
2023-01-29T03:54:08.886Z,359.00
2023-01-29T03:55:08.863Z,360.00
2023-01-29T03:56:08.840Z,361.00
2023-01-29T03:57:08.814Z,363.00
2023-01-29T03:58:08.796Z,362.00
2023-01-29T03:59:08.777Z,365.00
2023-01-29T04:00:08.758Z,369.00
2023-01-29T04:01:08.770Z,369.00
2023-01-29T04:02:08.739Z,371.00
2023-01-29T04:03:08.721Z,370.00
2023-01-29T04:04:08.771Z,371.00
2023-01-29T04:05:08.683Z,371.00
2023-01-29T04:06:08.674Z,368.00
2023-01-29T04:07:08.648Z,368.00
2023-01-29T04:08:08.631Z,369.00
2023-01-29T04:09:08.610Z,368.00
2023-01-29T04:10:08.589Z,368.00
2023-01-29T04:11:08.581Z,367.00
2023-01-29T04:12:08.546Z,367.00
2023-01-29T04:13:08.525Z,367.00
2023-01-29T04:14:08.516Z,367.00
2023-01-29T04:15:08.491Z,368.00
2023-01-29T04:16:08.479Z,368.00
2023-01-29T04:17:08.435Z,369.00
2023-01-29T04:18:08.420Z,370.00
2023-01-29T04:19:08.399Z,370.00
2023-01-29T04:20:08.373Z,371.00
2023-01-29T04:21:08.353Z,370.00
2023-01-29T04:22:08.323Z,370.00
2023-01-29T04:23:08.303Z,372.00
2023-01-29T04:24:08.328Z,369.00
2023-01-29T04:25:08.260Z,367.00
2023-01-29T04:26:08.291Z,367.00
2023-01-29T04:27:08.225Z,367.00
2023-01-29T04:28:08.210Z,367.00
2023-01-29T04:29:08.176Z,369.00
2023-01-29T04:30:08.169Z,366.00
2023-01-29T04:31:08.299Z,368.00
2023-01-29T04:32:08.140Z,368.00
2023-01-29T04:33:08.117Z,368.00
2023-01-29T04:34:08.091Z,370.00
2023-01-29T04:35:08.066Z,368.00
2023-01-29T04:36:08.043Z,366.00
2023-01-29T04:37:08.020Z,361.00
2023-01-29T04:38:08.007Z,361.00
2023-01-29T04:39:08.632Z,361.00
2023-01-29T04:40:07.981Z,361.00
2023-01-29T04:41:07.964Z,361.00
2023-01-29T04:42:07.943Z,360.00
2023-01-29T04:43:07.932Z,361.00
2023-01-29T04:44:07.911Z,360.00
2023-01-29T04:45:07.893Z,361.00
2023-01-29T04:46:07.879Z,363.00
2023-01-29T04:47:07.892Z,361.00
2023-01-29T04:48:07.858Z,360.00
2023-01-29T04:49:07.821Z,363.00
2023-01-29T04:50:07.810Z,364.00
2023-01-29T04:51:07.786Z,363.00
2023-01-29T04:52:07.771Z,365.00
2023-01-29T04:53:07.758Z,364.00
2023-01-29T04:54:07.738Z,360.00
2023-01-29T04:55:07.765Z,361.00
2023-01-29T04:56:07.709Z,361.00
2023-01-29T04:57:07.689Z,362.00
2023-01-29T04:58:07.679Z,360.00
2023-01-29T04:59:07.664Z,360.00
2023-01-29T05:00:07.642Z,360.00
2023-01-29T05:01:07.624Z,361.00
2023-01-29T05:02:07.622Z,362.00
2023-01-29T05:03:07.624Z,363.00
2023-01-29T05:04:07.596Z,364.00
2023-01-29T05:05:07.557Z,362.00
2023-01-29T05:06:07.555Z,361.00
2023-01-29T05:07:07.540Z,361.00
2023-01-29T05:08:07.528Z,360.00
2023-01-29T05:09:07.523Z,361.00
2023-01-29T05:10:07.512Z,361.00
2023-01-29T05:11:07.500Z,362.00
2023-01-29T05:12:07.481Z,363.00
2023-01-29T05:13:07.465Z,361.00
2023-01-29T05:14:07.454Z,361.00
2023-01-29T05:15:07.447Z,362.00
2023-01-29T05:16:07.487Z,363.00
2023-01-29T05:17:07.415Z,361.00
2023-01-29T05:18:07.402Z,362.00
2023-01-29T05:19:07.391Z,359.00
2023-01-29T05:20:07.372Z,357.00
2023-01-29T05:21:07.365Z,359.00
2023-01-29T05:22:07.333Z,356.00
2023-01-29T05:23:07.327Z,358.00
2023-01-29T05:24:07.333Z,360.00
2023-01-29T05:25:07.279Z,358.00
2023-01-29T05:26:07.262Z,358.00
2023-01-29T05:27:07.252Z,359.00
2023-01-29T05:28:07.245Z,357.00
2023-01-29T05:29:07.247Z,355.00
2023-01-29T05:30:07.199Z,356.00
2023-01-29T05:31:07.279Z,358.00
2023-01-29T05:32:07.187Z,358.00
2023-01-29T05:33:07.166Z,360.00
2023-01-29T05:34:07.151Z,362.00
2023-01-29T05:35:07.151Z,362.00
2023-01-29T05:36:07.122Z,362.00
2023-01-29T05:37:07.123Z,361.00
2023-01-29T05:38:07.097Z,360.00
2023-01-29T05:39:07.084Z,356.00
2023-01-29T05:40:07.059Z,354.00
2023-01-29T05:41:07.042Z,354.00
2023-01-29T05:42:07.020Z,354.00
2023-01-29T05:43:07.001Z,350.00
2023-01-29T05:44:06.988Z,348.00
2023-01-29T05:45:07.014Z,349.00
2023-01-29T05:46:06.949Z,354.00
2023-01-29T05:47:06.937Z,355.00
2023-01-29T05:48:06.917Z,358.00
2023-01-29T05:49:06.891Z,354.00
2023-01-29T05:50:06.853Z,352.00
2023-01-29T05:51:06.843Z,353.00
2023-01-29T05:52:06.838Z,355.00
2023-01-29T05:53:06.792Z,358.00
2023-01-29T05:54:06.779Z,361.00
2023-01-29T05:55:06.763Z,362.00
2023-01-29T05:56:06.727Z,363.00
2023-01-29T05:57:06.711Z,362.00
2023-01-29T05:58:06.690Z,362.00
2023-01-29T05:59:06.669Z,361.00
2023-01-29T06:00:06.633Z,359.00
2023-01-29T06:01:06.636Z,358.00
2023-01-29T06:02:06.633Z,359.00
2023-01-29T06:03:06.655Z,360.00
2023-01-29T06:04:06.597Z,364.00
2023-01-29T06:05:06.568Z,366.00
2023-01-29T06:06:06.545Z,365.00
2023-01-29T06:07:06.536Z,363.00
2023-01-29T06:08:06.523Z,359.00
2023-01-29T06:09:06.513Z,358.00
2023-01-29T06:10:06.477Z,357.00
2023-01-29T06:11:06.452Z,358.00
2023-01-29T06:12:06.428Z,359.00
2023-01-29T06:13:06.410Z,359.00
2023-01-29T06:14:06.384Z,359.00
2023-01-29T06:15:06.377Z,362.00
2023-01-29T06:16:06.387Z,361.00
2023-01-29T06:17:06.327Z,363.00
2023-01-29T06:18:06.307Z,363.00
2023-01-29T06:19:06.286Z,361.00
2023-01-29T06:20:06.250Z,359.00
2023-01-29T06:21:06.241Z,354.00
2023-01-29T06:22:06.204Z,357.00
2023-01-29T06:23:06.185Z,359.00
2023-01-29T06:24:06.203Z,360.00
2023-01-29T06:25:06.137Z,362.00
2023-01-29T06:26:06.120Z,360.00
2023-01-29T06:27:06.097Z,361.00
2023-01-29T06:28:06.073Z,363.00
2023-01-29T06:29:06.063Z,362.00
2023-01-29T06:30:06.039Z,362.00
2023-01-29T06:31:24.040Z,362.00
2023-01-29T06:32:07.124Z,364.00
2023-01-29T06:33:06.003Z,363.00
2023-01-29T06:34:05.973Z,363.00
2023-01-29T06:35:05.959Z,364.00
2023-01-29T06:36:05.932Z,361.00
2023-01-29T06:37:05.912Z,357.00
2023-01-29T06:38:05.899Z,355.00
2023-01-29T06:39:05.882Z,354.00
2023-01-29T06:40:05.858Z,355.00
2023-01-29T06:41:05.833Z,358.00
2023-01-29T06:42:05.816Z,356.00
2023-01-29T06:43:05.808Z,356.00
2023-01-29T06:44:05.786Z,354.00
2023-01-29T06:45:05.767Z,355.00
2023-01-29T06:46:05.772Z,355.00
2023-01-29T06:47:05.731Z,353.00
2023-01-29T06:48:05.707Z,357.00
2023-01-29T06:49:05.690Z,356.00
2023-01-29T06:50:05.677Z,357.00
2023-01-29T06:51:05.649Z,358.00
2023-01-29T06:52:05.633Z,360.00
2023-01-29T06:53:05.640Z,358.00
2023-01-29T06:54:05.587Z,359.00
2023-01-29T06:55:05.574Z,356.00
2023-01-29T06:56:05.547Z,355.00
2023-01-29T06:57:05.528Z,354.00
2023-01-29T06:58:05.524Z,354.00
2023-01-29T06:59:05.490Z,353.00
2023-01-29T07:00:05.456Z,351.00
2023-01-29T07:01:05.533Z,352.00
2023-01-29T07:02:05.438Z,353.00
2023-01-29T07:50:04.166Z,348.00
2023-01-29T07:51:04.137Z,346.00
2023-01-29T07:52:04.118Z,347.00
2023-01-29T07:53:04.104Z,348.00
2023-01-29T07:54:04.108Z,350.00
2023-01-29T07:55:04.055Z,353.00
2023-01-29T07:56:04.030Z,352.00
2023-01-29T07:57:04.010Z,352.00
2023-01-29T07:58:03.996Z,354.00
2023-01-29T07:59:03.974Z,354.00
2023-01-29T08:00:03.950Z,356.00
2023-01-29T08:01:03.958Z,357.00
2023-01-29T08:02:03.947Z,358.00
2023-01-29T08:03:03.871Z,357.00
2023-01-29T08:04:03.856Z,356.00
2023-01-29T08:05:03.824Z,355.00
2023-01-29T08:06:03.802Z,356.00
2023-01-29T08:07:03.774Z,358.00
2023-01-29T08:08:07.535Z,358.00
2023-01-29T08:09:03.732Z,357.00
2023-01-29T08:10:03.703Z,358.00
2023-01-29T08:11:03.712Z,357.00
2023-01-29T08:12:03.656Z,360.00
2023-01-29T08:13:03.629Z,360.00
2023-01-29T08:14:03.604Z,358.00
2023-01-29T08:15:03.590Z,360.00
2023-01-29T08:16:03.569Z,362.00
2023-01-29T08:17:03.543Z,362.00
2023-01-29T08:18:03.504Z,362.00
2023-01-29T08:19:03.482Z,360.00
2023-01-29T08:20:03.486Z,360.00
2023-01-29T08:21:03.441Z,363.00
2023-01-29T08:22:03.410Z,361.00
2023-01-29T08:23:03.385Z,362.00
2023-01-29T08:24:03.375Z,358.00
2023-01-29T08:25:08.363Z,358.00
2023-01-29T08:26:04.305Z,356.00
2023-01-29T08:27:03.274Z,350.00
2023-01-29T08:28:03.239Z,348.00
2023-01-29T08:29:03.208Z,348.00
2023-01-29T08:30:03.186Z,350.00
2023-01-29T08:31:03.183Z,351.00
2023-01-29T08:32:03.196Z,353.00
2023-01-29T08:33:03.126Z,351.00
2023-01-29T08:34:03.080Z,351.00
2023-01-29T08:35:03.048Z,353.00
2023-01-29T08:36:03.018Z,352.00
2023-01-29T08:37:02.990Z,349.00
2023-01-29T08:38:02.971Z,348.00
2023-01-29T08:39:02.953Z,349.00
2023-01-29T08:40:02.937Z,346.00
2023-01-29T08:41:02.899Z,348.00
2023-01-29T08:42:02.860Z,346.00
2023-01-29T08:43:03.591Z,347.00
2023-01-29T08:44:02.814Z,347.00
2023-01-29T08:45:02.787Z,348.00
2023-01-29T08:46:02.786Z,346.00
2023-01-29T08:47:02.717Z,349.00
2023-01-29T08:48:02.694Z,352.00
2023-01-29T08:49:02.652Z,353.00
2023-01-29T08:50:02.650Z,356.00
2023-01-29T08:51:02.579Z,355.00
2023-01-29T08:52:03.938Z,358.00
2023-01-29T08:53:02.523Z,362.00
2023-01-29T08:54:02.477Z,360.00
2023-01-29T08:55:02.457Z,361.00
2023-01-29T08:56:02.433Z,363.00
2023-01-29T08:57:02.381Z,364.00
2023-01-29T08:58:02.344Z,365.00
2023-01-29T08:59:02.317Z,363.00
2023-01-29T09:00:02.277Z,365.00
2023-01-29T09:01:02.319Z,362.00
2023-01-29T09:02:02.308Z,360.00
2023-01-29T09:03:02.204Z,360.00
2023-01-29T09:04:02.144Z,360.00
2023-01-29T09:05:02.122Z,361.00
2023-01-29T09:06:02.079Z,359.00
2023-01-29T09:07:02.040Z,361.00
2023-01-29T09:08:02.012Z,362.00
2023-01-29T09:09:01.965Z,360.00
2023-01-29T09:10:01.934Z,361.00
2023-01-29T09:11:01.879Z,357.00
2023-01-29T09:12:01.851Z,354.00
2023-01-29T09:13:01.809Z,355.00
2023-01-29T09:14:01.766Z,355.00
2023-01-29T09:15:01.737Z,356.00
2023-01-29T09:16:01.719Z,357.00
2023-01-29T09:17:01.673Z,355.00
2023-01-29T09:18:01.626Z,356.00
2023-01-29T09:19:01.601Z,358.00
2023-01-29T09:20:01.553Z,359.00
2023-01-29T09:21:01.518Z,359.00
2023-01-29T09:22:01.481Z,357.00
2023-01-29T09:23:01.441Z,353.00
2023-01-29T09:24:01.405Z,354.00
2023-01-29T09:25:01.384Z,355.00
2023-01-29T09:26:01.382Z,355.00
2023-01-29T09:27:01.308Z,356.00
2023-01-29T09:28:01.285Z,354.00
2023-01-29T09:29:01.222Z,357.00
2023-01-29T09:30:01.192Z,356.00
2023-01-29T09:31:01.241Z,354.00
2023-01-29T09:32:01.151Z,356.00
2023-01-29T09:33:01.098Z,357.00
2023-01-29T09:34:01.063Z,356.00
2023-01-29T09:35:01.015Z,357.00
2023-01-29T09:36:01.002Z,357.00
2023-01-29T09:37:00.954Z,358.00
2023-01-29T09:38:00.919Z,356.00
2023-01-29T09:39:00.887Z,358.00
2023-01-29T09:40:00.859Z,357.00
2023-01-29T09:41:00.828Z,360.00
2023-01-29T09:42:00.788Z,363.00
2023-01-29T09:43:00.745Z,364.00
2023-01-29T09:44:00.704Z,362.00
2023-01-29T09:45:00.672Z,361.00
2023-01-29T09:46:00.649Z,360.00
2023-01-29T09:47:00.596Z,361.00
2023-01-29T09:48:00.563Z,361.00
2023-01-29T09:49:00.530Z,361.00
2023-01-29T09:50:00.486Z,363.00
2023-01-29T09:51:00.460Z,364.00
2023-01-29T09:52:00.410Z,362.00
2023-01-29T09:53:00.381Z,365.00
2023-01-29T09:54:00.341Z,365.00
2023-01-29T09:55:00.315Z,365.00
2023-01-29T09:56:00.280Z,364.00
2023-01-29T09:57:00.250Z,364.00
2023-01-29T09:58:00.203Z,364.00
2023-01-29T09:59:01.651Z,364.00
2023-01-29T10:00:00.123Z,363.00
2023-01-29T10:01:00.115Z,366.00
2023-01-29T10:02:00.139Z,367.00
2023-01-29T10:03:00.004Z,366.00
2023-01-29T10:03:59.961Z,365.00
2023-01-29T10:04:59.916Z,364.00
2023-01-29T10:05:59.893Z,364.00
2023-01-29T10:06:59.838Z,364.00
2023-01-29T10:07:59.794Z,364.00
2023-01-29T10:08:59.752Z,363.00
2023-01-29T10:09:59.719Z,362.00
2023-01-29T10:10:59.691Z,361.00
2023-01-29T10:11:59.639Z,360.00
2023-01-29T10:12:59.608Z,361.00
2023-01-29T10:13:59.571Z,358.00
2023-01-29T10:14:59.512Z,355.00
2023-01-29T10:15:59.474Z,358.00
2023-01-29T10:16:59.532Z,358.00
2023-01-29T10:17:59.392Z,358.00
2023-01-29T10:18:59.359Z,357.00
2023-01-29T10:19:59.296Z,358.00
2023-01-29T10:20:59.257Z,360.00
2023-01-29T10:21:59.215Z,362.00
2023-01-29T10:22:59.187Z,357.00
2023-01-29T10:23:59.155Z,361.00
2023-01-29T10:24:59.095Z,363.00
2023-01-29T10:25:59.064Z,362.00
2023-01-29T10:26:59.025Z,359.00
2023-01-29T10:27:58.999Z,358.00
2023-01-29T10:28:58.948Z,358.00
2023-01-29T10:29:58.908Z,358.00
2023-01-29T10:30:58.985Z,358.00
2023-01-29T10:31:58.978Z,358.00
2023-01-29T10:32:58.783Z,358.00
2023-01-29T10:34:02.559Z,358.00
2023-01-29T10:34:58.708Z,357.00
2023-01-29T10:35:58.665Z,359.00
2023-01-29T10:36:58.621Z,356.00
2023-01-29T10:37:58.575Z,355.00
2023-01-29T10:38:58.532Z,357.00
2023-01-29T10:39:58.490Z,357.00
2023-01-29T10:40:58.443Z,360.00
2023-01-29T10:41:58.409Z,362.00
2023-01-29T10:42:58.380Z,362.00
2023-01-29T10:43:58.327Z,363.00
2023-01-29T10:44:58.288Z,362.00
2023-01-29T10:45:58.262Z,360.00
2023-01-29T10:46:58.248Z,358.00
2023-01-29T10:47:58.162Z,358.00
2023-01-29T10:48:58.120Z,362.00
2023-01-29T10:49:58.077Z,361.00
2023-01-29T10:50:58.035Z,361.00
2023-01-29T10:51:58.010Z,361.00
2023-01-29T10:52:57.935Z,359.00
2023-01-29T10:53:57.896Z,360.00
2023-01-29T10:54:57.844Z,360.00
2023-01-29T10:55:57.795Z,361.00
2023-01-29T10:56:57.768Z,359.00
2023-01-29T10:57:57.745Z,358.00
2023-01-29T10:58:57.665Z,358.00
2023-01-29T10:59:57.622Z,357.00
2023-01-29T11:00:57.575Z,359.00
2023-01-29T11:01:57.631Z,358.00
2023-01-29T11:02:57.583Z,357.00
2023-01-29T11:03:57.452Z,357.00
2023-01-29T11:04:57.403Z,357.00
2023-01-29T11:05:57.352Z,358.00
2023-01-29T11:06:57.309Z,357.00
2023-01-29T11:07:57.271Z,356.00
2023-01-29T11:08:57.215Z,356.00
2023-01-29T11:09:57.171Z,354.00
2023-01-29T11:10:57.123Z,356.00
2023-01-29T11:11:57.094Z,356.00
2023-01-29T11:12:57.065Z,357.00
2023-01-29T11:13:57.057Z,359.00
2023-01-29T11:14:56.956Z,360.00
2023-01-29T11:15:56.918Z,363.00
2023-01-29T11:16:56.872Z,365.00
2023-01-29T11:17:56.816Z,365.00
2023-01-29T11:18:56.786Z,365.00
2023-01-29T11:19:56.739Z,366.00
2023-01-29T11:20:56.681Z,366.00
2023-01-29T11:21:56.640Z,367.00
2023-01-29T11:22:56.600Z,366.00
2023-01-29T11:23:56.564Z,367.00
2023-01-29T11:24:56.498Z,367.00
2023-01-29T11:25:56.451Z,365.00
2023-01-29T11:26:56.399Z,366.00
2023-01-29T11:27:56.354Z,366.00
2023-01-29T11:28:56.299Z,368.00
2023-01-29T11:29:56.262Z,367.00
2023-01-29T11:30:56.346Z,366.00
2023-01-29T11:31:56.236Z,367.00
2023-01-29T11:32:56.135Z,365.00
2023-01-29T11:33:56.065Z,360.00
2023-01-29T11:34:56.012Z,360.00
2023-01-29T11:35:55.956Z,360.00
2023-01-29T11:36:55.917Z,358.00
2023-01-29T11:37:55.871Z,360.00
2023-01-29T11:38:55.821Z,357.00
2023-01-29T11:39:55.769Z,357.00
2023-01-29T11:40:55.733Z,357.00
2023-01-29T11:41:55.673Z,355.00
2023-01-29T11:42:55.627Z,355.00
2023-01-29T11:43:55.599Z,356.00
2023-01-29T11:44:55.531Z,357.00
2023-01-29T11:45:55.493Z,359.00
2023-01-29T11:46:55.437Z,360.00
2023-01-29T11:47:55.403Z,361.00
2023-01-29T12:05:54.587Z,358.00
2023-01-29T12:06:54.526Z,357.00
2023-01-29T12:07:54.475Z,355.00
2023-01-29T12:08:54.395Z,355.00
2023-01-29T12:09:54.361Z,355.00
2023-01-29T12:10:54.302Z,351.00
2023-01-29T12:11:54.264Z,354.00
2023-01-29T12:12:54.209Z,353.00
2023-01-29T12:13:54.167Z,354.00
2023-01-29T12:14:54.108Z,354.00
2023-01-29T12:15:54.937Z,356.00
2023-01-29T12:16:54.018Z,358.00
2023-01-29T12:17:53.992Z,356.00
2023-01-29T12:18:53.907Z,357.00
2023-01-29T12:19:53.888Z,357.00
2023-01-29T12:20:53.811Z,360.00
2023-01-29T12:21:53.771Z,359.00
2023-01-29T12:22:53.724Z,357.00
2023-01-29T12:23:53.682Z,360.00
2023-01-29T12:24:53.631Z,358.00
2023-01-29T12:25:53.630Z,360.00
2023-01-29T12:26:53.533Z,361.00
2023-01-29T12:27:53.502Z,360.00
2023-01-29T12:28:53.448Z,360.00
2023-01-29T12:29:53.409Z,360.00
2023-01-29T12:30:53.449Z,360.00
2023-01-29T12:31:53.310Z,358.00
2023-01-29T12:32:53.245Z,353.00
2023-01-29T12:33:53.213Z,351.00
2023-01-29T12:34:53.163Z,352.00
2023-01-29T12:35:53.110Z,354.00
2023-01-29T12:36:53.066Z,356.00
2023-01-29T12:37:53.009Z,354.00
2023-01-29T12:38:52.956Z,354.00
2023-01-29T12:39:52.925Z,355.00
2023-01-29T12:40:52.867Z,354.00
2023-01-29T12:41:52.820Z,353.00
2023-01-29T12:42:52.784Z,355.00
2023-01-29T12:43:52.719Z,353.00
2023-01-29T12:44:52.679Z,354.00
2023-01-29T12:45:52.608Z,354.00
2023-01-29T12:46:52.598Z,357.00
2023-01-29T12:47:52.512Z,356.00
2023-01-29T12:48:52.481Z,356.00
2023-01-29T12:49:52.411Z,356.00
2023-01-29T12:50:52.344Z,355.00
2023-01-29T12:51:52.309Z,353.00
2023-01-29T12:52:52.248Z,354.00
2023-01-29T12:53:52.194Z,354.00
2023-01-29T12:54:52.145Z,353.00
2023-01-29T12:55:52.093Z,354.00
2023-01-29T12:56:52.069Z,353.00
2023-01-29T12:57:51.997Z,352.00
2023-01-29T12:58:51.943Z,353.00
2023-01-29T12:59:51.889Z,353.00
2023-01-29T13:00:51.897Z,350.00
2023-01-29T13:01:51.787Z,350.00
2023-01-29T13:02:51.794Z,349.00
2023-01-29T13:03:51.704Z,350.00
2023-01-29T13:04:51.652Z,352.00
2023-01-29T13:05:51.603Z,353.00
2023-01-29T13:06:51.550Z,352.00
2023-01-29T13:07:51.500Z,352.00
2023-01-29T13:08:51.525Z,353.00
2023-01-29T13:09:51.401Z,352.00
2023-01-29T13:10:51.349Z,350.00
2023-01-29T13:11:51.300Z,351.00
2023-01-29T13:12:51.251Z,354.00
2023-01-29T13:13:52.880Z,356.00
2023-01-29T13:14:51.341Z,356.00
2023-01-29T13:15:51.290Z,353.00
2023-01-29T13:16:51.235Z,352.00
2023-01-29T13:17:51.194Z,352.00
2023-01-29T13:18:51.134Z,351.00
2023-01-29T13:19:51.103Z,350.00
2023-01-29T13:20:51.064Z,349.00
2023-01-29T13:21:50.997Z,351.00
2023-01-29T13:22:50.940Z,352.00
2023-01-29T13:23:50.896Z,351.00
2023-01-29T13:25:03.553Z,351.00
2023-01-29T13:26:50.789Z,352.00
2023-01-29T13:27:50.695Z,352.00
2023-01-29T13:28:50.632Z,354.00
2023-01-29T13:29:50.598Z,354.00
2023-01-29T13:30:50.552Z,355.00
2023-01-29T13:31:50.506Z,355.00
2023-01-29T13:32:50.451Z,356.00
2023-01-29T13:33:50.403Z,356.00
2023-01-29T13:34:50.367Z,357.00
2023-01-29T13:35:50.331Z,358.00
2023-01-29T13:36:50.268Z,359.00
2023-01-29T13:37:50.237Z,360.00
2023-01-29T13:38:50.171Z,361.00
2023-01-29T13:39:50.136Z,361.00
2023-01-29T13:40:50.080Z,361.00
2023-01-29T13:41:50.048Z,359.00
2023-01-29T13:42:49.999Z,359.00
2023-01-29T13:43:49.955Z,360.00
2023-01-29T13:44:49.921Z,360.00
2023-01-29T13:45:49.887Z,359.00
2023-01-29T13:46:49.823Z,359.00
2023-01-29T13:47:49.775Z,357.00
2023-01-29T13:48:49.740Z,357.00
2023-01-29T13:49:49.686Z,359.00
2023-01-29T13:50:49.639Z,362.00
2023-01-29T13:51:49.583Z,362.00
2023-01-29T13:52:49.541Z,360.00
2023-01-29T13:53:49.495Z,354.00
2023-01-29T13:54:49.451Z,354.00
2023-01-29T13:55:49.445Z,355.00
2023-01-29T13:56:49.372Z,354.00
2023-01-29T13:57:49.372Z,353.00
2023-01-29T13:58:49.291Z,354.00
2023-01-29T13:59:49.257Z,355.00
2023-01-29T14:00:49.186Z,356.00
2023-01-29T14:01:49.152Z,356.00
2023-01-29T14:02:49.202Z,356.00
2023-01-29T14:04:04.295Z,353.00
2023-01-29T14:05:48.960Z,355.00
2023-01-29T14:06:48.920Z,354.00
2023-01-29T14:07:48.893Z,353.00
2023-01-29T14:08:48.828Z,353.00
2023-01-29T14:09:48.796Z,352.00
2023-01-29T14:10:48.753Z,351.00
2023-01-29T14:11:48.703Z,352.00
2023-01-29T14:46:47.133Z,351.00
2023-01-29T14:47:47.101Z,350.00
2023-01-29T14:48:47.050Z,351.00
2023-01-29T14:49:47.005Z,352.00
2023-01-29T14:50:46.990Z,353.00
2023-01-29T14:51:46.925Z,354.00
2023-01-29T14:52:46.876Z,351.00
2023-01-29T14:53:46.840Z,347.00
2023-01-29T14:54:46.790Z,348.00
2023-01-29T14:55:46.751Z,348.00
2023-01-29T14:56:46.710Z,349.00
2023-01-29T14:57:46.655Z,346.00
2023-01-29T14:58:46.625Z,345.00
2023-01-29T14:59:46.581Z,345.00
2023-01-29T15:00:46.544Z,346.00
2023-01-29T15:01:46.621Z,347.00
2023-01-29T15:02:46.523Z,348.00
2023-01-29T15:03:46.416Z,350.00
2023-01-29T15:04:46.392Z,349.00
2023-01-29T15:05:46.331Z,350.00
2023-01-29T15:06:46.354Z,347.00
2023-01-29T15:07:46.246Z,349.00
2023-01-29T15:08:46.201Z,349.00
2023-01-29T15:09:46.178Z,348.00
2023-01-29T15:10:46.164Z,349.00
2023-01-29T15:11:46.099Z,346.00
2023-01-29T15:12:46.050Z,347.00
2023-01-29T15:13:46.022Z,348.00
2023-01-29T15:14:45.986Z,348.00
2023-01-29T15:15:45.962Z,348.00
2023-01-29T15:16:45.892Z,346.00
2023-01-29T15:17:45.860Z,346.00
2023-01-29T15:18:45.822Z,345.00
2023-01-29T15:19:45.788Z,344.00
2023-01-29T15:20:45.759Z,348.00
2023-01-29T15:21:45.718Z,348.00
2023-01-29T15:22:45.700Z,350.00
2023-01-29T15:23:45.649Z,352.00
2023-01-29T15:24:45.628Z,353.00
2023-01-29T15:25:45.597Z,355.00
2023-01-29T15:26:45.562Z,353.00
2023-01-29T15:27:45.530Z,351.00
2023-01-29T15:28:54.786Z,343.00
2023-01-29T15:29:46.438Z,345.00
2023-01-29T15:30:45.527Z,350.00
2023-01-29T17:55:39.901Z,345.00
2023-01-29T17:56:39.880Z,344.00
2023-01-29T17:57:39.859Z,339.00
2023-01-29T17:58:39.857Z,341.00
2023-01-29T17:59:39.798Z,341.00
2023-01-29T18:00:39.750Z,341.00
2023-01-29T18:01:39.798Z,342.00
2023-01-29T18:02:39.693Z,343.00
2023-01-29T18:03:39.699Z,343.00
2023-01-29T18:04:39.651Z,342.00
2023-01-29T18:05:39.614Z,346.00
2023-01-29T18:06:39.579Z,345.00
2023-01-29T18:07:39.545Z,346.00
2023-01-29T18:08:39.519Z,345.00
2023-01-29T18:09:39.483Z,347.00
2023-01-29T18:10:39.451Z,346.00
2023-01-29T18:11:39.424Z,346.00
2023-01-29T18:12:39.383Z,345.00
2023-01-29T18:13:39.363Z,346.00
2023-01-29T18:14:39.345Z,347.00
2023-01-29T18:15:39.304Z,347.00
2023-01-29T18:16:39.344Z,344.00
2023-01-29T18:17:39.235Z,341.00
2023-01-29T18:18:39.227Z,340.00
2023-01-29T18:19:39.181Z,341.00
2023-01-29T18:20:39.150Z,340.00
2023-01-29T18:21:39.137Z,341.00
2023-01-29T18:22:39.097Z,341.00
2023-01-29T18:23:39.073Z,341.00
2023-01-29T18:24:39.035Z,340.00
2023-01-29T18:25:39.020Z,342.00
2023-01-29T18:26:39.061Z,342.00
2023-01-29T18:27:38.943Z,339.00
2023-01-29T18:28:38.897Z,342.00
2023-01-29T18:29:38.871Z,344.00
2023-01-29T18:30:38.873Z,346.00
2023-01-29T18:31:38.918Z,347.00
2023-01-29T18:32:38.825Z,349.00
2023-01-29T18:33:38.729Z,350.00
2023-01-29T18:34:38.706Z,353.00
2023-01-29T18:35:38.674Z,348.00
2023-01-29T18:36:38.655Z,350.00
2023-01-29T18:37:38.614Z,347.00
2023-01-29T18:38:38.590Z,347.00
2023-01-29T18:39:38.568Z,346.00
2023-01-29T18:40:38.570Z,346.00
2023-01-29T18:41:38.516Z,345.00
2023-01-29T18:42:38.500Z,343.00
2023-01-29T18:43:38.464Z,342.00
2023-01-29T18:44:38.446Z,342.00
2023-01-29T18:45:38.472Z,340.00
2023-01-29T18:46:38.366Z,338.00
2023-01-29T18:47:38.346Z,339.00
2023-01-29T18:48:38.317Z,341.00
2023-01-29T18:49:38.289Z,340.00
2023-01-29T18:50:38.256Z,341.00
2023-01-29T18:51:38.259Z,340.00
2023-01-29T18:52:38.204Z,338.00
2023-01-29T18:53:38.172Z,338.00
2023-01-29T18:54:38.159Z,337.00
2023-01-29T18:55:38.122Z,340.00
2023-01-29T18:56:38.092Z,339.00
2023-01-29T18:58:36.046Z,341.00
2023-01-29T18:58:39.041Z,342.00
2023-01-29T18:59:38.042Z,341.00
2023-01-29T19:00:38.018Z,342.00
2023-01-29T19:01:37.964Z,342.00
2023-01-29T19:02:37.936Z,341.00
2023-01-29T19:03:37.897Z,339.00